Time;durP1;ratioP1;P1;durP2;ratioP2;P2;SDS_P1;SDS_P2;PMS_P1;PMS_P2;Temp;Humidity;BMP_temperature;BMP_pressure;BME280_temperature;BME280_humidity;BME280_pressure;Samples;Min_cycle;Max_cycle;Signal;HPM_P1;HPM_P2
2021/06/19 00:00:13;;;;;;;;;;;;;;;19.04;77.22;97153.69;1660194;87;20134;-80
2021/06/19 00:02:41;;;;;;;;;;;;;;;19.00;76.09;97152.38;1660197;86;20182;-80
2021/06/19 00:05:11;;;;;;;;;;;;;;;19.02;75.92;97149.05;1660252;86;20174;-75
2021/06/19 00:07:37;;;;;;;;;;;;;;;19.02;76.05;97151.20;1660310;87;20444;-79
2021/06/19 00:10:05;;;;;;;;;;;;;;;19.06;75.75;97146.33;1660131;86;20438;-79
2021/06/19 00:12:31;;;;;;;;;;;;;;;19.07;75.67;97141.32;1660161;87;20260;-77
2021/06/19 00:14:57;;;;;;;;;;;;;;;19.06;76.92;97145.52;1660387;86;20197;-77
2021/06/19 00:17:23;;;;;;;;;;;;;;;19.07;77.07;97145.33;1660314;86;20130;-76
2021/06/19 00:19:49;;;;;;;;;;;;;;;19.09;76.75;97138.47;1654269;85;20426;-76
2021/06/19 00:22:16;;;;;;;;;;;;;;;19.06;76.45;97142.33;1659889;86;20491;-78
2021/06/19 00:24:42;;;;;;;;;;;;;;;19.04;76.63;97147.85;1660185;86;20142;-79
2021/06/19 00:27:08;;;;;;;;;;;;;;;19.01;76.32;97144.70;1660216;85;20134;-77
2021/06/19 00:29:34;;;;;;;;;;;;;;;19.02;76.17;97145.03;1659859;86;20138;-79
2021/06/19 00:32:01;;;;;;;;;;;;;;;19.06;76.05;97149.00;1660136;85;20149;-79
2021/06/19 00:34:27;;;;;;;;;;;;;;;19.07;76.15;97149.85;1658190;85;20165;-78
2021/06/19 00:36:53;;;;;;;;;;;;;;;19.01;75.87;97150.86;1659956;85;20129;-77
2021/06/19 00:39:19;;;;;;;;;;;;;;;18.96;75.75;97147.91;1660101;85;20130;-79
2021/06/19 00:41:45;;;;;;;;;;;;;;;18.91;75.46;97152.89;1660073;85;20218;-78
2021/06/19 00:44:19;;;;;;;;;;;;;;;18.89;75.54;97152.22;1660170;86;20138;-78
2021/06/19 00:46:51;;;;;;;;;;;;;;;18.87;75.67;97149.73;1660049;86;20150;-78
2021/06/19 00:49:18;;;;;;;;;;;;;;;18.84;75.51;97146.59;1646688;87;20184;-78
2021/06/19 00:51:44;;;;;;;;;;;;;;;18.78;76.00;97148.11;1647034;87;20137;-78
2021/06/19 00:54:10;;;;;;;;;;;;;;;18.72;75.81;97137.63;1659997;87;20125;-78
2021/06/19 00:56:38;;;;;;;;;;;;;;;18.67;76.44;97135.99;1660097;85;20169;-77
2021/06/19 00:59:05;;;;;;;;;;;;;;;18.60;76.49;97136.36;1660123;85;20193;-79
2021/06/19 01:01:32;;;;;;;;;;;;;;;18.56;76.05;97137.70;1660081;85;20126;-78
2021/06/19 01:03:59;;;;;;;;;;;;;;;18.53;75.86;97137.55;1660334;85;20129;-78
2021/06/19 01:06:25;;;;;;;;;;;;;;;18.50;75.78;97140.55;1660152;86;20133;-75
2021/06/19 01:08:51;;;;;;;;;;;;;;;18.47;75.68;97141.41;1647219;85;20227;-78
2021/06/19 01:11:21;;;;;;;;;;;;;;;18.43;75.78;97138.25;1635624;87;20157;-78
2021/06/19 01:13:46;;;;;;;;;;;;;;;18.38;75.85;97143.25;1633100;87;20157;-79
2021/06/19 01:16:12;;;;;;;;;;;;;;;18.35;75.78;97140.44;1633335;88;20160;-79
2021/06/19 01:18:38;;;;;;;;;;;;;;;18.32;75.83;97143.47;1645996;87;20148;-78
2021/06/19 01:21:13;;;;;;;;;;;;;;;18.16;76.03;97135.00;1654827;86;20140;-78
2021/06/19 01:23:40;;;;;;;;;;;;;;;18.11;76.19;97138.66;1633340;87;20207;-78
2021/06/19 01:26:07;;;;;;;;;;;;;;;18.11;76.21;97138.66;1633259;88;20164;-78
2021/06/19 01:28:33;;;;;;;;;;;;;;;18.08;76.33;97141.69;1633237;88;20136;-77
2021/06/19 01:30:59;;;;;;;;;;;;;;;18.05;76.53;97149.50;1633511;87;20205;-79
2021/06/19 01:33:25;;;;;;;;;;;;;;;18.01;76.51;97142.86;1633426;88;20131;-78
2021/06/19 01:35:51;;;;;;;;;;;;;;;17.98;76.34;97142.37;1633377;87;20203;-78
2021/06/19 01:38:18;;;;;;;;;;;;;;;17.94;77.73;97143.17;1633302;87;20168;-78
2021/06/19 01:40:45;;;;;;;;;;;;;;;17.87;77.17;97141.68;1633379;88;20147;-80
2021/06/19 01:43:11;;;;;;;;;;;;;;;17.83;77.39;97137.67;1633342;88;20139;-77
2021/06/19 01:45:37;;;;;;;;;;;;;;;17.81;77.36;97143.70;1633339;87;20406;-77
2021/06/19 01:48:05;;;;;;;;;;;;;;;17.79;77.32;97135.02;1633349;88;20172;-77
2021/06/19 01:50:32;;;;;;;;;;;;;;;17.77;76.99;97144.50;1633407;87;20436;-77
2021/06/19 01:52:59;;;;;;;;;;;;;;;17.74;77.45;97146.67;1635082;87;20441;-78
2021/06/19 01:55:25;;;;;;;;;;;;;;;17.70;77.20;97147.52;1633376;87;20524;-77
2021/06/19 01:57:53;;;;;;;;;;;;;;;17.67;77.60;97147.87;1633277;88;20132;-77
2021/06/19 02:00:26;;;;;;;;;;;;;;;17.62;77.29;97147.52;1633555;87;20140;-78
2021/06/19 02:02:53;;;;;;;;;;;;;;;17.61;77.07;97140.52;1632602;87;20140;-77
2021/06/19 02:05:20;;;;;;;;;;;;;;;17.56;76.97;97141.02;1633321;87;20132;-78
2021/06/19 02:07:55;;;;;;;;;;;;;;;17.54;77.09;97142.19;1636916;87;20144;-77
2021/06/19 02:10:26;;;;;;;;;;;;;;;17.48;77.23;97135.20;1660110;86;20228;-78
2021/06/19 02:12:52;;;;;;;;;;;;;;;17.42;77.82;97135.85;1660187;85;20162;-78
2021/06/19 02:15:19;;;;;;;;;;;;;;;17.37;77.60;97134.67;1660339;85;20138;-77
2021/06/19 02:17:46;;;;;;;;;;;;;;;17.38;77.62;97138.53;1660207;85;20224;-77
2021/06/19 02:20:14;;;;;;;;;;;;;;;17.39;77.37;97133.53;1660172;85;20133;-77
2021/06/19 02:22:40;;;;;;;;;;;;;;;17.35;77.64;97130.86;1649662;86;20134;-77
2021/06/19 02:25:09;;;;;;;;;;;;;;;17.31;77.67;97126.84;1633428;87;20128;-78
2021/06/19 02:27:35;;;;;;;;;;;;;;;17.28;77.74;97125.86;1633176;88;20498;-79
2021/06/19 02:30:01;;;;;;;;;;;;;;;17.26;77.81;97125.19;1633141;88;20132;-78
2021/06/19 02:32:27;;;;;;;;;;;;;;;17.23;77.89;97130.84;1633418;87;20157;-76
2021/06/19 02:34:53;;;;;;;;;;;;;;;17.24;78.03;97129.84;1633430;87;20128;-78
2021/06/19 02:37:19;;;;;;;;;;;;;;;17.24;77.81;97132.02;1633428;87;20132;-77
2021/06/19 02:39:46;;;;;;;;;;;;;;;17.24;78.25;97131.17;1633424;88;20148;-77
2021/06/19 02:42:12;;;;;;;;;;;;;;;17.21;78.99;97132.85;1633421;88;20128;-78
2021/06/19 02:44:38;;;;;;;;;;;;;;;17.21;78.79;97143.00;1633483;87;20214;-79
2021/06/19 02:47:04;;;;;;;;;;;;;;;17.24;78.79;97141.83;1633504;88;20148;-78
2021/06/19 02:49:30;;;;;;;;;;;;;;;17.27;78.70;97142.84;1639684;87;20121;-77
2021/06/19 02:51:57;;;;;;;;;;;;;;;17.22;78.38;97142.48;1660277;87;20178;-77
2021/06/19 02:54:23;;;;;;;;;;;;;;;17.21;78.96;97141.66;1660218;85;20477;-77
2021/06/19 02:56:49;;;;;;;;;;;;;;;17.22;78.58;97137.16;1660222;86;20486;-77
2021/06/19 02:59:15;;;;;;;;;;;;;;;17.25;78.60;97140.35;1658414;86;20129;-78
2021/06/19 03:01:41;;;;;;;;;;;;;;;17.26;78.52;97135.84;1659874;87;20122;-77
2021/06/19 03:04:07;;;;;;;;;;;;;;;17.29;78.50;97137.67;1660240;86;20129;-78
2021/06/19 03:06:33;;;;;;;;;;;;;;;17.36;78.59;97139.19;1660222;86;20162;-78
2021/06/19 03:09:01;;;;;;;;;;;;;;;17.40;78.21;97137.02;1660194;87;20162;-76
2021/06/19 03:11:27;;;;;;;;;;;;;;;17.42;78.23;97133.19;1644904;86;20140;-78
2021/06/19 03:13:53;;;;;;;;;;;;;;;17.43;78.15;97136.19;1633469;87;20144;-78
2021/06/19 03:16:19;;;;;;;;;;;;;;;17.47;78.25;97131.36;1633434;87;20168;-77
2021/06/19 03:18:46;;;;;;;;;;;;;;;17.49;78.14;97134.70;1633515;87;20140;-77
2021/06/19 03:21:12;;;;;;;;;;;;;;;17.56;78.09;97138.36;1657961;87;20447;-78
2021/06/19 03:23:38;;;;;;;;;;;;;;;17.58;77.67;97137.69;1660030;86;20134;-77
2021/06/19 03:26:04;;;;;;;;;;;;;;;17.62;77.80;97135.52;1660474;85;20142;-77
2021/06/19 03:28:30;;;;;;;;;;;;;;;17.69;77.76;97137.03;1660264;85;20141;-77
2021/06/19 03:30:56;;;;;;;;;;;;;;;17.74;77.61;97136.86;1660118;85;20142;-76
2021/06/19 03:33:22;;;;;;;;;;;;;;;17.83;78.21;97128.86;1660131;86;20150;-78
2021/06/19 03:35:48;;;;;;;;;;;;;;;17.86;78.06;97127.20;1659971;85;20434;-78
2021/06/19 03:38:14;;;;;;;;;;;;;;;17.89;77.74;97122.84;1659983;86;20471;-78
2021/06/19 03:40:41;;;;;;;;;;;;;;;17.97;77.51;97120.19;1640402;85;20139;-78
2021/06/19 03:43:07;;;;;;;;;;;;;;;18.08;77.25;97121.17;1646955;87;20130;-78
2021/06/19 03:45:35;;;;;;;;;;;;;;;18.16;77.04;97122.14;1660183;87;20134;-78
2021/06/19 03:48:04;;;;;;;;;;;;;;;18.29;76.98;97128.27;1652703;86;20481;-78
2021/06/19 03:50:30;;;;;;;;;;;;;;;18.36;77.31;97127.94;1632858;87;20137;-77
2021/06/19 03:52:57;;;;;;;;;;;;;;;18.56;77.41;97121.17;1633434;88;20148;-78
2021/06/19 03:55:24;;;;;;;;;;;;;;;19.08;77.95;97116.27;1633343;87;20132;-79
2021/06/19 03:57:50;;;;;;;;;;;;;;;19.63;77.42;97111.67;1633411;87;20144;-79
2021/06/19 04:00:18;;;;;;;;;;;;;;;20.29;76.25;97115.59;1633279;87;20124;-79
2021/06/19 04:02:45;;;;;;;;;;;;;;;20.93;72.32;97121.37;1633283;87;20426;-78
2021/06/19 04:05:12;;;;;;;;;;;;;;;21.52;73.00;97115.77;1633274;88;20420;-79
2021/06/19 04:07:39;;;;;;;;;;;;;;;22.11;69.38;97108.42;1633285;87;20131;-78
2021/06/19 04:10:06;;;;;;;;;;;;;;;22.78;67.81;97103.39;1633229;88;20168;-78
2021/06/19 04:12:33;;;;;;;;;;;;;;;23.44;66.02;97107.84;1633543;88;20136;-78
2021/06/19 04:14:59;;;;;;;;;;;;;;;24.06;61.65;97105.48;1633301;87;20140;-79
2021/06/19 04:17:25;;;;;;;;;;;;;;;24.61;63.86;97110.01;1633456;86;20148;-79
2021/06/19 04:19:51;;;;;;;;;;;;;;;25.14;63.26;97106.78;1634804;85;20133;-79
2021/06/19 04:22:17;;;;;;;;;;;;;;;25.63;57.72;97100.88;1633436;88;20140;-78
2021/06/19 04:24:43;;;;;;;;;;;;;;;26.11;56.99;97104.34;1633451;88;20156;-79
2021/06/19 04:27:16;;;;;;;;;;;;;;;26.56;54.02;97106.47;1633379;88;20128;-79
2021/06/19 04:29:42;;;;;;;;;;;;;;;26.97;56.32;97106.28;1642773;87;20121;-79
2021/06/19 04:32:09;;;;;;;;;;;;;;;27.38;54.42;97110.09;1660171;86;20137;-79
2021/06/19 04:34:36;;;;;;;;;;;;;;;27.73;66.86;97120.73;1660468;86;20133;-79
2021/06/19 04:37:03;;;;;;;;;;;;;;;27.88;53.66;97115.69;1660144;85;20154;-79
2021/06/19 04:39:29;;;;;;;;;;;;;;;28.15;58.80;97115.80;1635429;85;20133;-79
2021/06/19 04:42:06;;;;;;;;;;;;;;;28.43;51.20;97115.59;1653551;87;20164;-79
2021/06/19 04:44:39;;;;;;;;;;;;;;;28.75;46.32;97112.48;1655694;87;20117;-78
2021/06/19 04:46:54;;;;;;;;;;;;;;;29.26;46.43;97116.72;1657617;87;20431;-77
2021/06/19 04:49:20;;;;;;;;;;;;;;;29.78;45.19;97117.66;1660066;85;20427;-79
2021/06/19 04:51:47;;;;;;;;;;;;;;;30.03;47.85;97112.64;1660033;87;20434;-81
2021/06/19 04:54:13;;;;;;;;;;;;;;;30.14;44.70;97108.73;1657450;86;20142;-80
2021/06/19 04:56:41;;;;;;;;;;;;;;;30.16;45.71;97101.96;1633599;87;20136;-80
2021/06/19 04:59:08;;;;;;;;;;;;;;;30.04;43.46;97100.71;1633359;88;20136;-78
2021/06/19 05:01:34;;;;;;;;;;;;;;;30.04;43.81;97091.20;1633415;87;20124;-79
2021/06/19 05:04:02;;;;;;;;;;;;;;;30.28;50.76;97092.89;1633311;88;20465;-79
2021/06/19 05:06:29;;;;;;;;;;;;;;;30.64;61.16;97088.75;1633499;87;20139;-79
2021/06/19 05:08:56;;;;;;;;;;;;;;;31.02;46.70;97094.38;1633300;88;20148;-79
2021/06/19 05:11:22;;;;;;;;;;;;;;;31.39;45.59;97095.05;1633453;87;20470;-79
2021/06/19 05:13:49;;;;;;;;;;;;;;;31.66;40.82;97102.36;1633338;87;20140;-79
2021/06/19 05:16:15;;;;;;;;;;;;;;;31.78;41.45;97101.66;1607900;88;20139;-80
2021/06/19 05:18:41;;;;;;;;;;;;;;;32.02;44.26;97105.39;1633338;88;20140;-79
2021/06/19 05:21:07;;;;;;;;;;;;;;;31.84;52.85;97098.98;1652258;87;20150;-79
2021/06/19 05:23:33;;;;;;;;;;;;;;;31.68;40.46;97107.05;1633601;87;20126;-79
2021/06/19 05:26:00;;;;;;;;;;;;;;;31.64;38.71;97105.88;1649338;85;20137;-80
2021/06/19 05:28:27;;;;;;;;;;;;;;;31.54;63.81;97116.16;1660191;87;20134;-78
2021/06/19 05:30:53;;;;;;;;;;;;;;;30.91;41.49;97115.73;1659951;85;20541;-77
2021/06/19 05:33:19;;;;;;;;;;;;;;;30.50;40.54;97122.27;1665161;85;20196;-78
2021/06/19 05:35:45;;;;;;;;;;;;;;;30.03;41.04;97116.72;1642399;87;20140;-78
2021/06/19 05:38:11;;;;;;;;;;;;;;;29.72;41.65;97120.81;1633296;87;20450;-80
2021/06/19 05:40:37;;;;;;;;;;;;;;;29.64;42.66;97118.52;1647207;87;20150;-79
2021/06/19 05:43:04;;;;;;;;;;;;;;;30.00;44.86;97128.63;1655693;85;20177;-78
2021/06/19 05:45:30;;;;;;;;;;;;;;;30.41;46.62;97132.48;1654828;86;20180;-78
2021/06/19 05:47:56;;;;;;;;;;;;;;;30.91;42.96;97133.42;1654779;86;20118;-78
2021/06/19 05:50:22;;;;;;;;;;;;;;;31.17;45.13;97131.02;1654912;86;20165;-79
2021/06/19 05:52:48;;;;;;;;;;;;;;;31.56;44.91;97137.67;1654805;86;20157;-78
2021/06/19 05:55:15;;;;;;;;;;;;;;;31.98;47.27;97139.69;1654839;86;20134;-79
2021/06/19 05:57:41;;;;;;;;;;;;;;;32.20;45.79;97138.76;1654797;86;20200;-79
2021/06/19 06:00:08;;;;;;;;;;;;;;;32.34;55.34;97135.87;1654800;86;20130;-78
2021/06/19 06:02:36;;;;;;;;;;;;;;;32.40;40.53;97129.91;1642872;87;20136;-77
2021/06/19 06:05:02;;;;;;;;;;;;;;;32.30;40.04;97130.69;1628560;87;20140;-79
2021/06/19 06:07:28;;;;;;;;;;;;;;;32.29;35.21;97126.31;1628188;88;20164;-77
2021/06/19 06:09:54;;;;;;;;;;;;;;;32.45;36.39;97129.12;1628139;88;20168;-78
2021/06/19 06:12:20;;;;;;;;;;;;;;;32.69;35.79;97126.26;1631980;87;20612;-78
2021/06/19 06:14:46;;;;;;;;;;;;;;;32.86;36.08;97130.16;1653216;85;20479;-77
2021/06/19 06:17:13;;;;;;;;;;;;;;;33.31;45.03;97133.87;1654890;86;20130;-78
2021/06/19 06:19:39;;;;;;;;;;;;;;;33.44;60.86;97133.36;1654812;86;20197;-76
2021/06/19 06:22:05;;;;;;;;;;;;;;;33.42;39.84;97130.08;1654764;86;20133;-78
2021/06/19 06:24:32;;;;;;;;;;;;;;;33.75;37.84;97127.09;1654831;86;20162;-78
2021/06/19 06:26:59;;;;;;;;;;;;;;;33.79;62.34;97129.57;1654807;86;20150;-79
2021/06/19 06:29:25;;;;;;;;;;;;;;;33.13;39.22;97105.95;1654961;87;20166;-79
2021/06/19 06:31:51;;;;;;;;;;;;;;;32.93;37.66;97116.83;1654089;86;20137;-79
2021/06/19 06:34:18;;;;;;;;;;;;;;;32.70;58.67;97118.88;1654776;86;20134;-79
2021/06/19 06:36:44;;;;;;;;;;;;;;;32.47;44.53;97116.88;1654708;85;20147;-78
2021/06/19 06:39:11;;;;;;;;;;;;;;;32.52;38.13;97112.00;1662584;86;20138;-79
2021/06/19 06:41:37;;;;;;;;;;;;;;;32.80;38.71;97109.41;1664927;86;20138;-78
2021/06/19 06:44:03;;;;;;;;;;;;;;;33.48;60.81;97118.08;1666931;86;20438;-77
2021/06/19 06:46:29;;;;;;;;;;;;;;;33.86;46.74;97113.74;1672075;85;20114;-75
2021/06/19 06:48:56;;;;;;;;;;;;;;;33.91;35.29;97114.28;1696195;85;20115;-77
2021/06/19 06:51:22;;;;;;;;;;;;;;;33.85;34.31;97118.91;1697315;84;20179;-77
2021/06/19 06:53:48;;;;;;;;;;;;;;;34.35;64.31;97125.97;1698052;85;20128;-79
2021/06/19 06:56:14;;;;;;;;;;;;;;;34.07;36.20;97124.67;1697962;85;20170;-77
2021/06/19 06:58:40;;;;;;;;;;;;;;;33.50;43.81;97130.09;1698187;84;20119;-78
2021/06/19 07:01:08;;;;;;;;;;;;;;;32.70;43.41;97130.63;1698148;84;20127;-78
2021/06/19 07:03:34;;;;;;;;;;;;;;;32.06;32.00;97131.02;1666526;86;20141;-78
2021/06/19 07:06:00;;;;;;;;;;;;;;;31.68;47.02;97139.73;1644441;86;20449;-79
2021/06/19 07:08:27;;;;;;;;;;;;;;;30.96;38.19;97137.03;1640240;86;20457;-76
2021/06/19 07:10:53;;;;;;;;;;;;;;;30.07;34.41;97148.30;1640216;86;20424;-77
2021/06/19 07:13:19;;;;;;;;;;;;;;;30.01;38.46;97138.42;1640185;87;20168;-78
2021/06/19 07:15:45;;;;;;;;;;;;;;;30.03;36.25;97137.62;1640084;88;20123;-76
2021/06/19 07:18:12;;;;;;;;;;;;;;;29.79;36.33;97135.05;1640129;88;20144;-78
2021/06/19 07:20:39;;;;;;;;;;;;;;;30.21;50.16;97144.15;1640119;87;20188;-77
2021/06/19 07:23:05;;;;;;;;;;;;;;;30.17;43.83;97143.02;1640142;87;20207;-75
2021/06/19 07:25:31;;;;;;;;;;;;;;;29.98;40.95;97141.08;1640236;87;20179;-76
2021/06/19 07:27:59;;;;;;;;;;;;;;;29.83;40.68;97159.83;1640095;87;20214;-77
2021/06/19 07:30:26;;;;;;;;;;;;;;;29.57;40.89;97158.03;1640378;86;20175;-77
2021/06/19 07:32:55;;;;;;;;;;;;;;;29.48;40.59;97156.23;1648299;86;20102;-78
2021/06/19 07:35:23;;;;;;;;;;;;;;;29.35;39.97;97151.12;1666261;86;20114;-79
2021/06/19 07:37:49;;;;;;;;;;;;;;;29.34;39.85;97161.68;1667167;86;20110;-79
2021/06/19 07:40:16;;;;;;;;;;;;;;;29.47;40.82;97143.72;1655281;86;20425;-76
2021/06/19 07:42:43;;;;;;;;;;;;;;;29.93;39.78;97156.50;1654900;86;20150;-76
2021/06/19 07:45:10;;;;;;;;;;;;;;;29.64;36.75;97149.19;1651334;86;20502;-79
2021/06/19 07:47:36;;;;;;;;;;;;;;;29.35;38.35;97148.41;1654931;86;20130;-79
2021/06/19 07:50:04;;;;;;;;;;;;;;;29.37;39.10;97147.09;1654915;87;20114;-77
2021/06/19 07:52:30;;;;;;;;;;;;;;;29.50;39.90;97151.94;1654978;86;20431;-76
2021/06/19 07:54:56;;;;;;;;;;;;;;;29.49;38.79;97147.02;1653022;87;20455;-78
2021/06/19 07:57:22;;;;;;;;;;;;;;;29.57;38.15;97142.55;1654896;86;20118;-78
2021/06/19 07:59:48;;;;;;;;;;;;;;;29.16;38.66;97149.92;1655098;87;20125;-76
2021/06/19 08:02:15;;;;;;;;;;;;;;;28.59;37.76;97141.97;1627547;88;20111;-78
2021/06/19 08:04:42;;;;;;;;;;;;;;;28.57;38.47;97140.02;1630359;87;20130;-78
2021/06/19 08:07:10;;;;;;;;;;;;;;;28.30;37.33;97147.84;1628570;87;20116;-78
2021/06/19 08:09:36;;;;;;;;;;;;;;;27.87;39.31;97148.42;1628338;87;20119;-78
2021/06/19 08:12:03;;;;;;;;;;;;;;;27.07;41.15;97149.03;1628257;88;20107;-79
2021/06/19 08:14:29;;;;;;;;;;;;;;;26.91;42.44;97147.22;1628384;88;20155;-78
2021/06/19 08:17:02;;;;;;;;;;;;;;;26.79;41.27;97141.77;1628416;86;20384;-78
2021/06/19 08:19:25;;;;;;;;;;;;;;;26.70;42.27;97149.03;1639636;87;20138;-79
2021/06/19 08:21:51;;;;;;;;;;;;;;;26.59;42.70;97143.83;1654729;86;20431;-78
2021/06/19 08:24:18;;;;;;;;;;;;;;;26.36;43.60;97145.33;1655072;86;20162;-79
2021/06/19 08:26:44;;;;;;;;;;;;;;;26.29;44.48;97147.28;1654907;86;20158;-78
2021/06/19 08:29:10;;;;;;;;;;;;;;;26.27;45.15;97146.67;1654929;87;20442;-78
2021/06/19 08:31:39;;;;;;;;;;;;;;;26.11;44.69;97142.66;1653051;86;20451;-76
2021/06/19 08:34:06;;;;;;;;;;;;;;;26.21;43.52;97137.58;1655120;87;20133;-78
2021/06/19 08:36:32;;;;;;;;;;;;;;;26.37;43.43;97132.64;1654958;85;20145;-78
2021/06/19 08:39:01;;;;;;;;;;;;;;;26.44;42.66;97127.47;1625408;88;20440;-78
2021/06/19 08:41:28;;;;;;;;;;;;;;;26.32;42.58;97129.25;1639982;88;20142;-79
2021/06/19 08:43:54;;;;;;;;;;;;;;;26.39;43.79;97125.14;1642077;86;20122;-77
2021/06/19 08:46:22;;;;;;;;;;;;;;;26.61;43.53;97129.57;1640241;86;20098;-78
2021/06/19 08:48:52;;;;;;;;;;;;;;;26.65;41.47;97126.19;1640034;88;20455;-77
2021/06/19 08:51:20;;;;;;;;;;;;;;;26.75;42.38;97121.63;1640189;88;20173;-77
2021/06/19 08:53:49;;;;;;;;;;;;;;;26.86;42.29;97128.70;1640274;88;20106;-78
2021/06/19 08:56:17;;;;;;;;;;;;;;;26.81;41.86;97130.73;1649249;86;20455;-79
2021/06/19 08:58:45;;;;;;;;;;;;;;;26.55;41.70;97129.13;1640336;86;20106;-77
2021/06/19 09:01:11;;;;;;;;;;;;;;;26.42;42.47;97129.56;1657302;86;20415;-78
2021/06/19 09:03:38;;;;;;;;;;;;;;;26.59;42.47;97120.86;1690470;85;20428;-77
2021/06/19 09:06:28;;;;;;;;;;;;;;;26.69;42.96;97127.91;1670916;85;20438;-78
2021/06/19 09:09:02;;;;;;;;;;;;;;;26.65;43.22;97123.48;1666817;86;20154;-79
2021/06/19 09:11:37;;;;;;;;;;;;;;;26.52;43.38;97118.77;1667069;86;20133;-77
2021/06/19 09:14:10;;;;;;;;;;;;;;;26.32;43.27;97111.69;1665925;86;20130;-76
2021/06/19 09:16:37;;;;;;;;;;;;;;;26.07;42.66;97121.18;1654799;86;20190;-78
2021/06/19 09:19:25;;;;;;;;;;;;;;;25.93;43.16;97121.83;1639905;88;20104;-78
2021/06/19 09:22:15;;;;;;;;;;;;;;;25.56;44.09;97124.71;1657286;86;20423;-75
2021/06/19 09:24:50;;;;;;;;;;;;;;;25.46;44.42;97123.02;1666889;86;20133;-77
2021/06/19 09:27:32;;;;;;;;;;;;;;;25.44;44.46;97118.86;1667060;86;20126;-77
2021/06/19 09:30:13;;;;;;;;;;;;;;;25.33;44.14;97124.41;1666829;86;20134;-77
2021/06/19 09:32:45;;;;;;;;;;;;;;;25.21;44.47;97129.67;1666865;86;20125;-76
2021/06/19 09:35:20;;;;;;;;;;;;;;;24.93;44.04;97124.92;1685955;83;20194;-77
2021/06/19 09:37:49;;;;;;;;;;;;;;;24.57;46.41;97126.28;1695091;85;20232;-78
2021/06/19 09:40:25;;;;;;;;;;;;;;;24.53;47.16;97126.41;1694851;85;20119;-76
2021/06/19 09:42:53;;;;;;;;;;;;;;;24.41;47.91;97126.74;1682403;85;20133;-78
2021/06/19 09:45:23;;;;;;;;;;;;;;;24.46;47.78;97132.31;1667023;86;20162;-76
2021/06/19 09:47:51;;;;;;;;;;;;;;;24.35;48.06;97128.95;1666915;86;20125;-76
2021/06/19 09:50:18;;;;;;;;;;;;;;;24.07;49.26;97138.10;1666974;86;20430;-75
2021/06/19 09:52:45;;;;;;;;;;;;;;;24.04;49.49;97131.78;1666118;86;20232;-76
2021/06/19 09:55:12;;;;;;;;;;;;;;;23.81;49.50;97135.67;1666385;86;20231;-74
2021/06/19 09:57:41;;;;;;;;;;;;;;;23.70;49.23;97129.91;1666960;86;20228;-77
2021/06/19 10:00:09;;;;;;;;;;;;;;;23.65;49.66;97136.41;1666821;86;20137;-77
2021/06/19 10:02:35;;;;;;;;;;;;;;;23.51;49.77;97136.09;1650848;86;20157;-77
2021/06/19 10:05:02;;;;;;;;;;;;;;;23.47;50.27;97138.38;1640842;86;20106;-77
2021/06/19 10:07:32;;;;;;;;;;;;;;;23.37;50.76;97136.06;1640716;86;20102;-77
2021/06/19 10:09:58;;;;;;;;;;;;;;;23.36;51.06;97129.55;1639532;87;20174;-77
2021/06/19 10:12:29;;;;;;;;;;;;;;;23.51;50.82;97130.72;1639620;88;20134;-76
2021/06/19 10:15:11;;;;;;;;;;;;;;;23.43;50.75;97135.77;1639928;86;20117;-77
2021/06/19 10:17:39;;;;;;;;;;;;;;;23.57;50.62;97133.11;1639038;87;20161;-76
2021/06/19 10:20:08;;;;;;;;;;;;;;;23.73;50.80;97136.73;1639938;88;20404;-76
2021/06/19 10:22:36;;;;;;;;;;;;;;;23.76;50.47;97135.48;1646623;86;20482;-78
2021/06/19 10:25:07;;;;;;;;;;;;;;;23.74;50.55;97128.97;1643856;86;20114;-77
2021/06/19 10:27:33;;;;;;;;;;;;;;;23.86;50.59;97138.59;1639755;87;20150;-76
2021/06/19 10:30:02;;;;;;;;;;;;;;;24.00;50.52;97134.06;1640009;88;20106;-78
2021/06/19 10:32:45;;;;;;;;;;;;;;;24.12;49.86;97132.91;1656399;86;20141;-78
2021/06/19 10:35:16;;;;;;;;;;;;;;;24.24;49.36;97134.44;1692613;83;20158;-78
2021/06/19 10:37:43;;;;;;;;;;;;;;;24.48;49.01;97123.50;1694874;85;20127;-78
2021/06/19 10:40:19;;;;;;;;;;;;;;;24.61;48.62;97121.29;1688353;85;20135;-76
2021/06/19 10:42:45;;;;;;;;;;;;;;;24.78;48.04;97123.03;1669770;85;20149;-76
2021/06/19 10:45:29;;;;;;;;;;;;;;;24.83;48.36;97126.43;1639608;87;20106;-78
2021/06/19 10:48:00;;;;;;;;;;;;;;;24.93;48.27;97119.53;1632325;87;20139;-77
2021/06/19 10:50:27;;;;;;;;;;;;;;;25.16;48.14;97118.18;1632106;87;20169;-78
2021/06/19 10:53:07;;;;;;;;;;;;;;;25.24;45.99;97114.41;1651805;87;20133;-77
2021/06/19 10:55:43;;;;;;;;;;;;;;;25.16;46.95;97116.83;1634551;87;20131;-78
2021/06/19 10:58:25;;;;;;;;;;;;;;;25.47;47.21;97112.53;1627646;87;20102;-78
2021/06/19 11:00:59;;;;;;;;;;;;;;;25.75;45.87;97107.23;1622764;88;20106;-78
2021/06/19 11:03:43;;;;;;;;;;;;;;;25.83;45.01;97103.41;1632194;88;20106;-77
2021/06/19 11:06:25;;;;;;;;;;;;;;;25.98;45.69;97107.97;1632216;88;20118;-79
2021/06/19 11:09:15;;;;;;;;;;;;;;;26.16;45.07;97096.38;1632216;87;20107;-79
2021/06/19 11:12:02;;;;;;;;;;;;;;;26.21;44.45;97093.55;1633624;87;20118;-77
2021/06/19 11:14:47;;;;;;;;;;;;;;;26.50;45.09;97102.24;1632122;87;20399;-77
2021/06/19 11:17:26;;;;;;;;;;;;;;;26.93;44.39;97096.99;1632173;87;20400;-79
2021/06/19 11:19:59;;;;;;;;;;;;;;;27.07;43.88;97089.53;1632791;87;20139;-79
2021/06/19 11:22:31;;;;;;;;;;;;;;;27.11;42.41;97086.13;1629785;88;20493;-78
2021/06/19 11:25:18;;;;;;;;;;;;;;;26.87;41.41;97093.32;1630115;87;20132;-78
2021/06/19 11:28:04;;;;;;;;;;;;;;;26.70;41.24;97088.21;1659835;85;20491;-78
2021/06/19 11:30:37;;;;;;;;;;;;;;;26.35;41.40;97086.94;1683950;85;20455;-78
2021/06/19 11:33:20;;;;;;;;;;;;;;;26.43;42.88;97083.94;1665436;85;20154;-77
2021/06/19 11:35:58;;;;;;;;;;;;;;;26.22;42.03;97080.35;1656390;87;20162;-78
2021/06/19 11:38:25;;;;;;;;;;;;;;;26.09;42.41;97074.02;1654059;87;20166;-77
2021/06/19 11:40:51;;;;;;;;;;;;;;;26.08;42.82;97069.64;1664498;86;20185;-79
2021/06/19 11:43:30;;;;;;;;;;;;;;;25.98;42.34;97074.22;1666831;86;20121;-77
2021/06/19 11:45:59;;;;;;;;;;;;;;;25.91;41.97;97070.73;1676745;85;20173;-76
2021/06/19 11:48:26;;;;;;;;;;;;;;;25.88;42.30;97057.16;1666326;86;20441;-78
2021/06/19 11:51:03;;;;;;;;;;;;;;;26.07;42.84;97055.02;1657123;86;20423;-80
2021/06/19 11:53:37;;;;;;;;;;;;;;;26.36;42.81;97049.96;1640136;87;20126;-77
2021/06/19 11:56:12;;;;;;;;;;;;;;;26.69;42.82;97048.17;1655039;86;20182;-78
2021/06/19 11:58:46;;;;;;;;;;;;;;;26.95;41.71;97048.92;1688973;85;20130;-78
2021/06/19 12:01:15;;;;;;;;;;;;;;;27.05;39.03;97042.41;1666195;86;20148;-77
2021/06/19 12:03:42;;;;;;;;;;;;;;;27.01;40.31;97033.63;1666836;86;20166;-79
2021/06/19 12:06:08;;;;;;;;;;;;;;;26.93;40.10;97034.80;1666886;86;20162;-78
2021/06/19 12:08:34;;;;;;;;;;;;;;;26.93;40.79;97020.73;1667153;86;20137;-78
2021/06/19 12:11:00;;;;;;;;;;;;;;;26.95;41.21;97019.18;1656429;86;20094;-76
2021/06/19 12:13:34;;;;;;;;;;;;;;;26.85;40.76;97017.02;1647433;86;20137;-76
2021/06/19 12:16:02;;;;;;;;;;;;;;;26.91;40.70;97020.14;1666067;86;20223;-77
2021/06/19 12:18:29;;;;;;;;;;;;;;;27.09;40.89;97021.97;1613319;88;20108;-77
2021/06/19 12:21:09;;;;;;;;;;;;;;;27.05;39.75;97032.12;1640132;88;20116;-74
2021/06/19 12:23:41;;;;;;;;;;;;;;;27.01;40.06;97025.52;1639110;88;20142;-78
2021/06/19 12:26:09;;;;;;;;;;;;;;;26.80;40.58;97025.81;1640456;87;20125;-78
2021/06/19 12:28:37;;;;;;;;;;;;;;;26.64;40.09;97025.88;1640240;88;20389;-78
2021/06/19 12:31:04;;;;;;;;;;;;;;;26.48;40.82;97023.81;1616077;86;20434;-77
2021/06/19 12:33:32;;;;;;;;;;;;;;;26.39;40.86;97017.07;1640543;86;20416;-77
2021/06/19 12:35:59;;;;;;;;;;;;;;;26.44;41.06;97023.45;1652061;86;20403;-78
2021/06/19 12:38:27;;;;;;;;;;;;;;;26.48;40.99;97014.36;1667138;86;20146;-77
2021/06/19 12:40:55;;;;;;;;;;;;;;;26.57;41.28;97012.18;1667032;86;20133;-78
2021/06/19 12:43:21;;;;;;;;;;;;;;;26.58;41.41;97011.13;1667024;86;20133;-76
2021/06/19 12:45:49;;;;;;;;;;;;;;;26.73;40.23;97003.42;1666882;86;20157;-76
2021/06/19 12:48:23;;;;;;;;;;;;;;;26.92;40.30;97002.05;1667025;86;20158;-77
2021/06/19 12:50:57;;;;;;;;;;;;;;;26.84;40.37;96997.78;1664870;86;20157;-77
2021/06/19 12:53:32;;;;;;;;;;;;;;;26.76;39.91;96988.63;1666826;86;20137;-77